Time;durP1;ratioP1;P1;durP2;ratioP2;P2;SDS_P1;SDS_P2;PMS_P1;PMS_P2;Temp;Humidity;BMP_temperature;BMP_pressure;BME280_temperature;BME280_humidity;BME280_pressure;Samples;Min_cycle;Max_cycle;Signal;HPM_P1;HPM_P2
2022/05/11 00:01:17;;;;;;;;;;;15.60;99.90;;;;;;5036158;28;19912;-79
2022/05/11 00:03:43;;;;;;;;;;;15.20;99.90;;;;;;5035935;28;19962;-80
2022/05/11 00:06:08;;;;;;;;;;;15.10;99.90;;;;;;5035951;28;19905;-78
2022/05/11 00:08:34;;;;;;;;;;;15.10;99.90;;;;;;5035789;28;20003;-79
2022/05/11 00:11:01;;;;;;;;;;;14.90;99.90;;;;;;5035742;28;20435;-78
2022/05/11 00:13:28;;;;;;;;;;;14.90;99.90;;;;;;5035785;28;20281;-80
2022/05/11 00:15:54;;;;;;;;;;;14.80;99.90;;;;;;5035722;28;19905;-77
2022/05/11 00:18:19;;;;;;;;;;;14.90;99.90;;;;;;5035690;28;19905;-79
2022/05/11 00:20:45;;;;;;;;;;;15.20;99.90;;;;;;5035825;28;19909;-79
2022/05/11 00:23:11;;;;;;;;;;;15.70;99.90;;;;;;5035781;28;19992;-78
2022/05/11 00:25:36;;;;;;;;;;;15.90;99.90;;;;;;5034241;28;20011;-79
2022/05/11 00:28:02;;;;;;;;;;;15.70;99.90;;;;;;5035519;28;19905;-79
2022/05/11 00:30:28;;;;;;;;;;;15.90;99.90;;;;;;5034134;28;20408;-80
2022/05/11 00:32:54;;;;;;;;;;;15.70;99.90;;;;;;5035543;28;19905;-78
2022/05/11 00:35:20;;;;;;;;;;;15.40;99.90;;;;;;5035320;28;19944;-79
2022/05/11 00:37:46;;;;;;;;;;;15.30;99.90;;;;;;5039210;28;19916;-79
2022/05/11 00:40:13;;;;;;;;;;;15.40;99.90;;;;;;5055475;28;19992;-78
2022/05/11 00:42:38;;;;;;;;;;;15.50;99.90;;;;;;5054330;28;19904;-78
2022/05/11 00:45:04;;;;;;;;;;;15.30;99.90;;;;;;5055074;28;20284;-79
2022/05/11 00:47:33;;;;;;;;;;;15.30;99.90;;;;;;5037171;28;19966;-78
2022/05/11 00:50:03;;;;;;;;;;;15.40;99.90;;;;;;5055083;28;19963;-78
2022/05/11 00:52:38;;;;;;;;;;;15.00;99.90;;;;;;5054983;28;19955;-79
2022/05/11 00:55:05;;;;;;;;;;;14.50;99.90;;;;;;5036960;28;20339;-79
2022/05/11 00:57:51;;;;;;;;;;;14.40;99.90;;;;;;5055222;28;19905;-79
2022/05/11 01:00:17;;;;;;;;;;;14.30;99.90;;;;;;5054924;28;19991;-79
2022/05/11 01:02:44;;;;;;;;;;;14.40;99.90;;;;;;5054748;28;19909;-78
2022/05/11 01:05:09;;;;;;;;;;;14.70;99.90;;;;;;5054930;28;19936;-80
2022/05/11 01:07:36;;;;;;;;;;;14.80;99.90;;;;;;5054929;28;19951;-78
2022/05/11 01:10:02;;;;;;;;;;;14.50;99.90;;;;;;5055102;28;19930;-80
2022/05/11 01:12:31;;;;;;;;;;;14.20;99.90;;;;;;5054782;28;19911;-80
2022/05/11 01:15:00;;;;;;;;;;;14.20;99.90;;;;;;5036563;28;19911;-79
2022/05/11 01:17:27;;;;;;;;;;;14.50;99.90;;;;;;5054661;28;19909;-78
2022/05/11 01:19:53;;;;;;;;;;;14.70;99.90;;;;;;5054383;28;20357;-79
2022/05/11 01:22:27;;;;;;;;;;;15.00;99.90;;;;;;5054367;28;20331;-80
2022/05/11 01:24:53;;;;;;;;;;;14.50;99.90;;;;;;5054448;28;20321;-79
2022/05/11 01:27:27;;;;;;;;;;;14.60;99.90;;;;;;5036432;28;19943;-77
2022/05/11 01:29:54;;;;;;;;;;;14.80;99.90;;;;;;5036482;28;19966;-78
2022/05/11 01:32:21;;;;;;;;;;;14.50;99.90;;;;;;5054497;28;19905;-78
2022/05/11 01:34:48;;;;;;;;;;;14.30;99.90;;;;;;5054139;28;19905;-79
2022/05/11 01:37:14;;;;;;;;;;;14.80;99.90;;;;;;5054435;28;19905;-78
2022/05/11 01:39:39;;;;;;;;;;;15.00;99.90;;;;;;5053924;28;19940;-78
2022/05/11 01:42:05;;;;;;;;;;;15.10;99.90;;;;;;5054602;28;19962;-79
2022/05/11 01:44:31;;;;;;;;;;;14.90;99.90;;;;;;5054080;28;19995;-78
2022/05/11 01:46:59;;;;;;;;;;;15.00;99.90;;;;;;5054092;28;19921;-78
2022/05/11 01:49:25;;;;;;;;;;;15.00;99.90;;;;;;5054391;28;20000;-79
2022/05/11 01:51:50;;;;;;;;;;;14.80;99.90;;;;;;5053838;28;20400;-79
2022/05/11 01:54:16;;;;;;;;;;;14.90;99.90;;;;;;5053710;28;19905;-80
2022/05/11 01:56:42;;;;;;;;;;;15.10;99.90;;;;;;5035891;28;19905;-78
2022/05/11 01:59:08;;;;;;;;;;;15.10;99.90;;;;;;5054232;28;19912;-78
2022/05/11 02:01:35;;;;;;;;;;;15.10;99.90;;;;;;5053729;28;19991;-79
2022/05/11 02:04:01;;;;;;;;;;;15.10;99.90;;;;;;5054268;28;20479;-78
2022/05/11 02:09:12;;;;;;;;;;;15.10;99.90;;;;;;5053515;28;19932;-78
2022/05/11 02:11:38;;;;;;;;;;;15.20;99.90;;;;;;5053831;28;20315;-78
2022/05/11 02:14:04;;;;;;;;;;;15.20;99.90;;;;;;5053564;28;19994;-79
2022/05/11 02:16:29;;;;;;;;;;;15.00;99.90;;;;;;5053553;28;19931;-78
2022/05/11 02:18:55;;;;;;;;;;;15.20;99.90;;;;;;5054055;28;19909;-79
2022/05/11 02:21:22;;;;;;;;;;;14.80;99.90;;;;;;5035686;28;19911;-78
2022/05/11 02:23:50;;;;;;;;;;;14.80;99.90;;;;;;5053531;28;19928;-77
2022/05/11 02:26:16;;;;;;;;;;;14.90;99.90;;;;;;5053549;28;19912;-79
2022/05/11 02:28:42;;;;;;;;;;;15.00;99.90;;;;;;5053320;28;20027;-79
2022/05/11 02:31:08;;;;;;;;;;;15.00;99.90;;;;;;5053595;28;20003;-79
2022/05/11 02:33:37;;;;;;;;;;;15.00;99.90;;;;;;5053489;28;19905;-78
2022/05/11 02:36:03;;;;;;;;;;;15.00;99.90;;;;;;5053499;28;19905;-78
2022/05/11 02:38:30;;;;;;;;;;;14.90;99.90;;;;;;5053134;28;19923;-78
2022/05/11 02:40:56;;;;;;;;;;;14.70;99.90;;;;;;5053328;28;19920;-79
2022/05/11 02:43:22;;;;;;;;;;;14.70;99.90;;;;;;5053902;28;19908;-79
2022/05/11 02:45:48;;;;;;;;;;;14.80;99.90;;;;;;5053606;28;19909;-78
2022/05/11 02:48:19;;;;;;;;;;;14.90;99.90;;;;;;5053506;28;19911;-79
2022/05/11 02:50:50;;;;;;;;;;;14.80;99.90;;;;;;5053813;28;20357;-77
2022/05/11 02:53:16;;;;;;;;;;;14.80;99.90;;;;;;5053383;28;19915;-78
2022/05/11 02:55:45;;;;;;;;;;;14.70;99.90;;;;;;5053480;28;19917;-80
2022/05/11 02:58:12;;;;;;;;;;;14.60;99.90;;;;;;5053190;28;19905;-79
2022/05/11 03:00:39;;;;;;;;;;;14.50;99.90;;;;;;5053377;28;19905;-77
2022/05/11 03:03:06;;;;;;;;;;;14.40;99.90;;;;;;5053705;28;19904;-78
2022/05/11 03:05:32;;;;;;;;;;;14.60;99.90;;;;;;5054480;28;20323;-79
2022/05/11 03:07:58;;;;;;;;;;;14.50;99.90;;;;;;5056947;28;19905;-78
2022/05/11 03:10:23;;;;;;;;;;;14.50;99.90;;;;;;5056737;28;19954;-79
2022/05/11 03:12:49;;;;;;;;;;;14.70;99.90;;;;;;5057082;28;19905;-79
2022/05/11 03:15:15;;;;;;;;;;;14.70;99.90;;;;;;5056828;28;20387;-79
2022/05/11 03:17:40;;;;;;;;;;;14.60;99.90;;;;;;5056742;28;20276;-80
2022/05/11 03:20:07;;;;;;;;;;;14.60;99.90;;;;;;5056663;28;19905;-79
2022/05/11 03:22:33;;;;;;;;;;;14.70;99.90;;;;;;5056695;28;19908;-79
2022/05/11 03:24:59;;;;;;;;;;;14.50;99.90;;;;;;5056618;28;20384;-78
2022/05/11 03:27:25;;;;;;;;;;;14.50;99.90;;;;;;5038669;28;20258;-78
2022/05/11 03:29:51;;;;;;;;;;;14.50;99.90;;;;;;5056525;28;19909;-79
2022/05/11 03:35:02;;;;;;;;;;;14.80;99.90;;;;;;5056639;28;19940;-80
2022/05/11 03:37:27;;;;;;;;;;;14.80;99.90;;;;;;5056255;28;19905;-80
2022/05/11 03:39:53;;;;;;;;;;;14.80;99.90;;;;;;5056700;28;20391;-79
2022/05/11 03:42:21;;;;;;;;;;;14.80;99.90;;;;;;5056345;28;20299;-79
2022/05/11 03:44:47;;;;;;;;;;;14.80;99.90;;;;;;5056373;28;19928;-78
2022/05/11 03:47:12;;;;;;;;;;;14.60;99.90;;;;;;5038262;28;20365;-78
2022/05/11 03:49:38;;;;;;;;;;;14.40;99.90;;;;;;5038222;28;19956;-79
2022/05/11 03:52:04;;;;;;;;;;;14.20;99.90;;;;;;5056726;28;19911;-77
2022/05/11 03:54:29;;;;;;;;;;;14.30;99.90;;;;;;5056033;28;20273;-79
2022/05/11 03:56:55;;;;;;;;;;;14.20;99.90;;;;;;5038330;28;20007;-78
2022/05/11 03:59:21;;;;;;;;;;;14.30;99.90;;;;;;5056366;28;19905;-78
2022/05/11 04:01:46;;;;;;;;;;;14.40;99.90;;;;;;5038111;28;19905;-79
2022/05/11 04:04:12;;;;;;;;;;;14.40;99.90;;;;;;5056053;28;20273;-77
2022/05/11 04:06:37;;;;;;;;;;;14.30;99.90;;;;;;5056000;28;19905;-78
2022/05/11 04:09:03;;;;;;;;;;;14.40;99.90;;;;;;5055845;28;20187;-79
2022/05/11 04:11:29;;;;;;;;;;;14.80;99.90;;;;;;5037892;28;19927;-79
2022/05/11 04:13:55;;;;;;;;;;;14.90;99.90;;;;;;5056145;28;19911;-78
2022/05/11 04:16:21;;;;;;;;;;;14.90;99.90;;;;;;5054946;28;19905;-80
2022/05/11 04:18:46;;;;;;;;;;;14.50;99.90;;;;;;5055183;28;19912;-78
2022/05/11 04:21:12;;;;;;;;;;;14.50;99.90;;;;;;5055585;28;19911;-78
2022/05/11 04:23:40;;;;;;;;;;;14.50;99.90;;;;;;5055809;28;20280;-80
2022/05/11 04:26:06;;;;;;;;;;;14.40;99.90;;;;;;5055587;28;19916;-77
2022/05/11 04:28:32;;;;;;;;;;;14.40;99.90;;;;;;5055651;28;19905;-80
2022/05/11 04:31:05;;;;;;;;;;;14.40;99.90;;;;;;5055360;28;19927;-80
2022/05/11 04:33:31;;;;;;;;;;;14.40;99.90;;;;;;5037427;28;19958;-78
2022/05/11 04:35:57;;;;;;;;;;;14.50;99.90;;;;;;5055263;28;19905;-78
2022/05/11 04:38:23;;;;;;;;;;;14.40;99.90;;;;;;5055089;28;19917;-79
2022/05/11 04:40:48;;;;;;;;;;;14.50;99.90;;;;;;5055232;28;19905;-78
2022/05/11 04:43:14;;;;;;;;;;;14.40;99.90;;;;;;5037241;28;19931;-79
2022/05/11 04:45:41;;;;;;;;;;;14.40;99.90;;;;;;5055455;28;19996;-78
2022/05/11 04:48:08;;;;;;;;;;;14.30;99.90;;;;;;5055345;28;19998;-78
2022/05/11 04:50:35;;;;;;;;;;;14.40;99.90;;;;;;5054200;28;19909;-79
2022/05/11 04:53:03;;;;;;;;;;;14.50;99.90;;;;;;5055030;28;19913;-79
2022/05/11 04:55:30;;;;;;;;;;;14.40;99.90;;;;;;5054760;28;20275;-80
2022/05/11 04:57:56;;;;;;;;;;;14.40;99.90;;;;;;5037064;28;20007;-78
2022/05/11 05:00:21;;;;;;;;;;;14.40;99.90;;;;;;5036954;28;19905;-78
2022/05/11 05:02:47;;;;;;;;;;;14.40;99.90;;;;;;5054837;28;19904;-78
2022/05/11 05:05:13;;;;;;;;;;;14.50;99.90;;;;;;5055336;28;19905;-78
2022/05/11 05:07:41;;;;;;;;;;;14.40;99.90;;;;;;5037070;28;19911;-78
2022/05/11 05:10:08;;;;;;;;;;;14.40;99.90;;;;;;5054603;28;20357;-80
2022/05/11 05:12:34;;;;;;;;;;;14.70;99.90;;;;;;5054491;28;19954;-78
2022/05/11 05:15:00;;;;;;;;;;;14.70;99.90;;;;;;5054593;28;19909;-79
2022/05/11 05:17:25;;;;;;;;;;;14.90;99.90;;;;;;5054548;28;19905;-79
2022/05/11 05:19:51;;;;;;;;;;;15.00;99.90;;;;;;5054699;28;19905;-79
2022/05/11 05:22:17;;;;;;;;;;;14.90;99.90;;;;;;5054954;28;19908;-78
2022/05/11 05:24:43;;;;;;;;;;;14.90;99.90;;;;;;5054325;28;19935;-78
2022/05/11 05:27:13;;;;;;;;;;;14.60;99.90;;;;;;5054654;28;20059;-78
2022/05/11 05:32:23;;;;;;;;;;;15.00;99.90;;;;;;5054542;28;20281;-80
2022/05/11 05:34:49;;;;;;;;;;;15.00;99.90;;;;;;5036053;28;19908;-78
2022/05/11 05:37:15;;;;;;;;;;;14.90;99.90;;;;;;5054357;28;20047;-78
2022/05/11 05:39:41;;;;;;;;;;;15.00;99.90;;;;;;5054073;28;19916;-78
2022/05/11 05:42:07;;;;;;;;;;;15.20;99.90;;;;;;5054058;28;19999;-79
2022/05/11 05:44:33;;;;;;;;;;;14.80;99.90;;;;;;5054359;28;19905;-78
2022/05/11 05:47:02;;;;;;;;;;;15.10;99.90;;;;;;5053824;28;20018;-78
2022/05/11 05:49:28;;;;;;;;;;;15.10;99.90;;;;;;5053843;28;20387;-79
2022/05/11 05:51:54;;;;;;;;;;;15.20;99.90;;;;;;5053867;28;19904;-78
2022/05/11 05:54:19;;;;;;;;;;;15.30;99.90;;;;;;5053818;28;19912;-78
2022/05/11 05:56:45;;;;;;;;;;;15.30;99.90;;;;;;5054313;28;19984;-79
2022/05/11 05:59:11;;;;;;;;;;;15.20;99.90;;;;;;5053614;28;19935;-78
2022/05/11 06:01:38;;;;;;;;;;;15.30;99.90;;;;;;5053853;28;19904;-80
2022/05/11 06:04:05;;;;;;;;;;;15.40;99.90;;;;;;5053983;28;20361;-77
2022/05/11 06:06:30;;;;;;;;;;;15.50;99.90;;;;;;5035827;28;19904;-79
2022/05/11 06:08:56;;;;;;;;;;;15.70;99.90;;;;;;5053581;28;19919;-78
2022/05/11 06:11:22;;;;;;;;;;;15.70;99.90;;;;;;5053844;28;19970;-79
2022/05/11 06:13:47;;;;;;;;;;;15.80;99.90;;;;;;5035719;28;19905;-79
2022/05/11 06:16:14;;;;;;;;;;;15.80;99.90;;;;;;5035682;28;19905;-80
2022/05/11 06:18:41;;;;;;;;;;;15.80;99.90;;;;;;5053583;28;19928;-78
2022/05/11 06:21:07;;;;;;;;;;;15.70;99.90;;;;;;5035579;28;19908;-78
2022/05/11 06:23:33;;;;;;;;;;;15.60;99.90;;;;;;5053804;28;19912;-78
2022/05/11 06:25:58;;;;;;;;;;;15.60;99.90;;;;;;5035528;28;19905;-78
2022/05/11 06:28:24;;;;;;;;;;;15.90;99.90;;;;;;5053491;28;19905;-78
2022/05/11 06:30:49;;;;;;;;;;;16.20;99.90;;;;;;5035433;28;19909;-79
2022/05/11 06:33:15;;;;;;;;;;;16.50;99.90;;;;;;5053641;28;19911;-78
2022/05/11 06:35:41;;;;;;;;;;;16.50;99.90;;;;;;5035536;28;19911;-79
2022/05/11 06:38:07;;;;;;;;;;;16.50;99.90;;;;;;5053174;28;20003;-78
2022/05/11 06:40:33;;;;;;;;;;;16.70;99.90;;;;;;5054890;28;19911;-79
2022/05/11 06:43:01;;;;;;;;;;;16.60;99.90;;;;;;5057484;28;20279;-78
2022/05/11 06:45:27;;;;;;;;;;;16.50;99.90;;;;;;5057353;28;19916;-78
2022/05/11 06:47:53;;;;;;;;;;;16.50;99.90;;;;;;5057415;28;19912;-78
2022/05/11 06:50:19;;;;;;;;;;;16.60;99.90;;;;;;5057214;28;19959;-79
2022/05/11 06:52:44;;;;;;;;;;;16.70;99.90;;;;;;5057300;28;19905;-79
2022/05/11 07:00:39;;;;;;;;;;;17.70;99.90;;;;;;5057099;28;19954;-77
2022/05/11 07:03:08;;;;;;;;;;;17.80;99.90;;;;;;5057068;28;20303;-78
2022/05/11 07:05:34;;;;;;;;;;;18.00;99.90;;;;;;5056997;28;20327;-78
2022/05/11 07:08:00;;;;;;;;;;;18.10;99.90;;;;;;5056995;28;19904;-80
2022/05/11 07:10:26;;;;;;;;;;;18.10;99.90;;;;;;5056829;28;19962;-78
2022/05/11 07:12:51;;;;;;;;;;;19.60;99.90;;;;;;5056886;28;20357;-78
2022/05/11 07:15:18;;;;;;;;;;;18.70;99.90;;;;;;5056862;28;20373;-79
2022/05/11 07:17:52;;;;;;;;;;;17.90;99.90;;;;;;5038946;28;19905;-78
2022/05/11 07:20:20;;;;;;;;;;;18.70;99.90;;;;;;5038864;28;20006;-79
2022/05/11 07:22:46;;;;;;;;;;;21.00;99.90;;;;;;5056632;28;19970;-79
2022/05/11 07:25:13;;;;;;;;;;;22.40;95.80;;;;;;5056587;28;20325;-79
2022/05/11 07:27:39;;;;;;;;;;;23.10;93.00;;;;;;5038665;28;19940;-78
2022/05/11 07:30:07;;;;;;;;;;;22.60;92.80;;;;;;5056427;28;20401;-79
2022/05/11 07:32:33;;;;;;;;;;;23.20;93.10;;;;;;5056401;28;19967;-78
2022/05/11 07:34:59;;;;;;;;;;;23.60;91.10;;;;;;5056398;28;20369;-79
2022/05/11 07:37:24;;;;;;;;;;;22.20;92.60;;;;;;5056158;28;19904;-79
2022/05/11 07:39:51;;;;;;;;;;;22.40;93.40;;;;;;5038193;28;20012;-79
2022/05/11 07:42:16;;;;;;;;;;;22.40;92.50;;;;;;5056353;28;20379;-77
2022/05/11 07:44:42;;;;;;;;;;;22.20;93.20;;;;;;5056810;28;19987;-78
2022/05/11 07:47:10;;;;;;;;;;;22.10;92.60;;;;;;5038375;28;20387;-78
2022/05/11 07:49:36;;;;;;;;;;;22.40;92.80;;;;;;5056464;28;19913;-79
2022/05/11 07:52:02;;;;;;;;;;;23.10;90.60;;;;;;5038311;28;20373;-77
2022/05/11 07:54:29;;;;;;;;;;;22.40;89.00;;;;;;5056119;28;19912;-79
2022/05/11 07:59:59;;;;;;;;;;;21.80;92.30;;;;;;5055809;28;20005;-77
2022/05/11 08:02:29;;;;;;;;;;;22.50;91.40;;;;;;5056009;28;19909;-79
2022/05/11 08:04:57;;;;;;;;;;;22.80;90.60;;;;;;5055884;28;19904;-78
2022/05/11 08:07:25;;;;;;;;;;;22.60;87.80;;;;;;5056074;28;19912;-78
2022/05/11 08:09:52;;;;;;;;;;;21.40;90.80;;;;;;5055838;28;19909;-78
2022/05/11 08:12:17;;;;;;;;;;;21.10;91.80;;;;;;5055645;28;19939;-78
2022/05/11 08:14:44;;;;;;;;;;;21.00;93.70;;;;;;5055742;28;20365;-79
2022/05/11 08:17:09;;;;;;;;;;;21.40;91.90;;;;;;5037814;28;19955;-78
2022/05/11 08:19:35;;;;;;;;;;;21.50;91.30;;;;;;5055913;28;20312;-78
2022/05/11 08:22:01;;;;;;;;;;;21.40;90.90;;;;;;5055541;28;19908;-78
2022/05/11 08:24:27;;;;;;;;;;;21.20;90.80;;;;;;5055693;28;19999;-78
2022/05/11 08:26:53;;;;;;;;;;;21.90;89.90;;;;;;5056129;28;19904;-79
2022/05/11 08:34:48;;;;;;;;;;;22.90;79.50;;;;;;5055571;28;20319;-78
2022/05/11 08:37:14;;;;;;;;;;;23.40;79.90;;;;;;5055277;28;19905;-78
2022/05/11 08:39:40;;;;;;;;;;;23.30;77.90;;;;;;5055093;28;19917;-78
2022/05/11 08:42:06;;;;;;;;;;;23.40;79.30;;;;;;5055211;28;19992;-77
2022/05/11 08:44:33;;;;;;;;;;;23.80;76.50;;;;;;5055711;28;20360;-78
2022/05/11 08:47:02;;;;;;;;;;;23.50;75.30;;;;;;5055087;28;20379;-80
2022/05/11 08:49:40;;;;;;;;;;;23.70;76.00;;;;;;5037128;28;20003;-79
2022/05/11 08:52:10;;;;;;;;;;;23.60;73.60;;;;;;5037077;28;19911;-80
2022/05/11 08:54:38;;;;;;;;;;;24.00;74.00;;;;;;5054849;28;19905;-78
2022/05/11 08:57:07;;;;;;;;;;;23.60;75.70;;;;;;5054930;28;20353;-78
2022/05/11 08:59:33;;;;;;;;;;;24.30;74.60;;;;;;5054861;28;19905;-80
2022/05/11 09:02:28;;;;;;;;;;;25.80;72.10;;;;;;5054831;28;20384;-78
2022/05/11 09:04:55;;;;;;;;;;;25.50;70.50;;;;;;5033002;28;19905;-79
2022/05/11 09:07:21;;;;;;;;;;;24.90;69.90;;;;;;5054678;28;19920;-77
2022/05/11 09:09:47;;;;;;;;;;;24.40;73.70;;;;;;5054609;28;19909;-78
2022/05/11 09:12:13;;;;;;;;;;;25.10;70.50;;;;;;5036598;28;19911;-77
2022/05/11 09:14:44;;;;;;;;;;;25.10;71.10;;;;;;5055096;28;19905;-77
2022/05/11 09:17:30;;;;;;;;;;;25.00;70.00;;;;;;5054806;28;19905;-78
2022/05/11 09:20:04;;;;;;;;;;;25.60;69.40;;;;;;5036398;28;20015;-78
2022/05/11 09:22:30;;;;;;;;;;;25.20;70.50;;;;;;5036316;28;20292;-79
2022/05/11 09:24:57;;;;;;;;;;;24.50;71.70;;;;;;5054207;28;20018;-78
2022/05/11 09:27:30;;;;;;;;;;;24.60;66.70;;;;;;5054291;28;20388;-79
2022/05/11 09:29:59;;;;;;;;;;;25.20;64.90;;;;;;5054259;28;19912;-79
2022/05/11 09:32:37;;;;;;;;;;;25.60;62.50;;;;;;5054247;28;19905;-78
2022/05/11 09:35:21;;;;;;;;;;;26.30;63.10;;;;;;5054185;28;19936;-78
2022/05/11 09:37:58;;;;;;;;;;;26.90;61.00;;;;;;5053931;28;19952;-79
2022/05/11 09:40:23;;;;;;;;;;;27.10;60.60;;;;;;5036199;28;19951;-78
2022/05/11 09:42:49;;;;;;;;;;;27.30;59.40;;;;;;5054470;28;19905;-79
2022/05/11 09:45:33;;;;;;;;;;;27.70;59.70;;;;;;5054181;28;19993;-79
2022/05/11 09:48:08;;;;;;;;;;;28.40;57.20;;;;;;5054086;28;19904;-79
2022/05/11 09:50:33;;;;;;;;;;;28.80;55.30;;;;;;5053904;28;19916;-78
2022/05/11 09:53:09;;;;;;;;;;;28.70;53.50;;;;;;5054184;28;20273;-78
2022/05/11 09:55:35;;;;;;;;;;;29.10;54.00;;;;;;5053920;28;19912;-78
2022/05/11 09:58:02;;;;;;;;;;;29.80;53.30;;;;;;5053902;28;19909;-80
2022/05/11 10:00:39;;;;;;;;;;;30.90;51.40;;;;;;5053679;28;19905;-79
2022/05/11 10:03:10;;;;;;;;;;;32.30;49.90;;;;;;5053746;28;19951;-76
2022/05/11 10:05:40;;;;;;;;;;;33.40;47.20;;;;;;5053968;28;19911;-76
2022/05/11 10:08:06;;;;;;;;;;;31.80;47.70;;;;;;5053550;28;19905;-76
2022/05/11 10:10:36;;;;;;;;;;;32.60;48.00;;;;;;5035687;28;19932;-76
2022/05/11 10:13:26;;;;;;;;;;;32.90;45.30;;;;;;5054045;28;19912;-76
2022/05/11 10:21:56;;;;;;;;;;;30.20;50.70;;;;;;5053273;28;19911;-75
2022/05/11 10:24:44;;;;;;;;;;;32.20;47.50;;;;;;5035353;28;19905;-79
2022/05/11 10:27:28;;;;;;;;;;;28.50;51.30;;;;;;5053515;28;20354;-79
2022/05/11 10:30:06;;;;;;;;;;;30.90;49.10;;;;;;5053399;28;19909;-75
2022/05/11 10:32:40;;;;;;;;;;;31.90;47.90;;;;;;5053428;28;19904;-75
2022/05/11 10:35:24;;;;;;;;;;;32.50;47.60;;;;;;5053529;28;19912;-77
2022/05/11 10:37:59;;;;;;;;;;;34.00;45.40;;;;;;5053364;28;19987;-75
2022/05/11 10:40:25;;;;;;;;;;;31.60;47.20;;;;;;5053564;28;19905;-76
2022/05/11 10:43:06;;;;;;;;;;;31.60;48.80;;;;;;5053392;28;19932;-76
2022/05/11 10:45:42;;;;;;;;;;;34.40;45.40;;;;;;5053296;28;19905;-77
2022/05/11 10:48:14;;;;;;;;;;;35.20;43.40;;;;;;5053593;28;19908;-77
2022/05/11 10:50:58;;;;;;;;;;;34.70;44.40;;;;;;5053401;28;19908;-77
2022/05/11 10:53:42;;;;;;;;;;;35.40;42.90;;;;;;5053433;28;19905;-76
2022/05/11 10:56:27;;;;;;;;;;;33.80;44.60;;;;;;5053187;28;19912;-76
2022/05/11 10:59:04;;;;;;;;;;;34.40;44.10;;;;;;5053209;28;20319;-78
2022/05/11 11:01:39;;;;;;;;;;;32.40;47.50;;;;;;5053158;28;19943;-77
2022/05/11 11:04:11;;;;;;;;;;;32.30;46.20;;;;;;5053198;28;19991;-77
2022/05/11 11:07:14;;;;;;;;;;;33.90;45.40;;;;;;5053146;28;20323;-76
2022/05/11 11:09:58;;;;;;;;;;;35.50;43.80;;;;;;5053049;28;20002;-75
2022/05/11 11:12:49;;;;;;;;;;;33.50;43.90;;;;;;5035147;28;19908;-77
2022/05/11 11:15:17;;;;;;;;;;;30.60;47.70;;;;;;5053179;28;20426;-76
2022/05/11 11:17:43;;;;;;;;;;;32.10;46.70;;;;;;5053155;28;19909;-77
2022/05/11 11:20:10;;;;;;;;;;;33.80;45.00;;;;;;5053000;28;19911;-74
2022/05/11 11:22:54;;;;;;;;;;;33.10;45.70;;;;;;5053421;28;19905;-78
2022/05/11 11:25:21;;;;;;;;;;;31.80;47.30;;;;;;5052965;28;19905;-75
2022/05/11 11:28:04;;;;;;;;;;;32.70;46.60;;;;;;5056289;28;19944;-75
2022/05/11 11:30:30;;;;;;;;;;;31.20;47.80;;;;;;5038605;28;20281;-77
2022/05/11 11:33:20;;;;;;;;;;;30.10;50.20;;;;;;5056776;28;20369;-78
2022/05/11 11:35:53;;;;;;;;;;;29.10;50.50;;;;;;5056556;28;20377;-78
2022/05/11 11:38:41;;;;;;;;;;;27.90;52.80;;;;;;5056386;28;19964;-79
2022/05/11 11:41:10;;;;;;;;;;;28.30;54.40;;;;;;5056013;28;19909;-78
2022/05/11 11:43:40;;;;;;;;;;;27.80;53.70;;;;;;5056427;28;19936;-78
2022/05/11 11:46:06;;;;;;;;;;;27.80;54.40;;;;;;5038136;28;19911;-79
2022/05/11 11:48:32;;;;;;;;;;;27.50;55.10;;;;;;5038385;28;19905;-78
2022/05/11 11:50:59;;;;;;;;;;;28.00;55.30;;;;;;5056388;28;19989;-78
2022/05/11 11:53:44;;;;;;;;;;;27.50;55.40;;;;;;5056149;28;19905;-79
2022/05/11 11:56:24;;;;;;;;;;;27.20;55.50;;;;;;5056043;28;19905;-79
2022/05/11 11:59:03;;;;;;;;;;;27.30;56.30;;;;;;5056100;28;19905;-78
2022/05/11 12:01:30;;;;;;;;;;;27.50;54.50;;;;;;5055991;28;19904;-78
2022/05/11 12:03:59;;;;;;;;;;;26.20;57.10;;;;;;5055864;28;20373;-78
2022/05/11 12:15:03;;;;;;;;;;;27.20;58.70;;;;;;5055879;28;19912;-79
2022/05/11 12:17:34;;;;;;;;;;;27.30;58.20;;;;;;5055748;28;19950;-78
2022/05/11 12:20:01;;;;;;;;;;;27.10;58.60;;;;;;5056256;28;19905;-78
2022/05/11 12:22:27;;;;;;;;;;;26.30;58.90;;;;;;5055592;28;19948;-79
2022/05/11 12:25:01;;;;;;;;;;;27.40;59.00;;;;;;5037694;28;20399;-78
2022/05/11 12:27:29;;;;;;;;;;;30.80;52.70;;;;;;5055402;28;19954;-80
2022/05/11 12:29:59;;;;;;;;;;;28.90;53.50;;;;;;5055401;28;19955;-79
2022/05/11 12:32:32;;;;;;;;;;;29.60;54.80;;;;;;5055701;28;19948;-78
2022/05/11 12:35:05;;;;;;;;;;;29.30;53.90;;;;;;5037452;28;19915;-79
2022/05/11 12:37:32;;;;;;;;;;;29.90;55.20;;;;;;5054282;28;20395;-78
2022/05/11 12:40:00;;;;;;;;;;;29.10;54.40;;;;;;5055399;28;19954;-79
2022/05/11 12:42:46;;;;;;;;;;;30.10;53.30;;;;;;5055204;28;20486;-78
2022/05/11 12:45:38;;;;;;;;;;;28.60;54.80;;;;;;5054629;28;19905;-77
2022/05/11 12:48:04;;;;;;;;;;;27.90;56.50;;;;;;5050390;28;19905;-78
2022/05/11 12:50:33;;;;;;;;;;;27.20;57.60;;;;;;5055137;28;20329;-76
2022/05/11 12:53:04;;;;;;;;;;;29.00;58.20;;;;;;5055033;28;20395;-77
2022/05/11 12:55:34;;;;;;;;;;;29.00;53.70;;;;;;5054904;28;19904;-77
2022/05/11 12:58:01;;;;;;;;;;;27.70;56.50;;;;;;5054864;28;19954;-78
2022/05/11 13:00:28;;;;;;;;;;;27.40;56.70;;;;;;5054816;28;19916;-78
2022/05/11 13:02:55;;;;;;;;;;;27.60;56.80;;;;;;5054842;28;19958;-78
2022/05/11 13:05:21;;;;;;;;;;;27.10;57.00;;;;;;5055068;28;19936;-77
2022/05/11 13:08:05;;;;;;;;;;;26.70;57.90;;;;;;5054740;28;19909;-77
2022/05/11 13:10:32;;;;;;;;;;;27.60;58.80;;;;;;5054639;28;19908;-77
2022/05/11 13:12:59;;;;;;;;;;;28.00;55.90;;;;;;5054629;28;19934;-77
2022/05/11 13:15:44;;;;;;;;;;;29.20;56.50;;;;;;5054613;28;19958;-78
2022/05/11 13:18:29;;;;;;;;;;;32.10;50.80;;;;;;5054730;28;19912;-78
2022/05/11 13:20:58;;;;;;;;;;;30.80;52.60;;;;;;5054503;28;19905;-78
2022/05/11 13:23:36;;;;;;;;;;;29.20;53.70;;;;;;5054429;28;19990;-77
2022/05/11 13:26:03;;;;;;;;;;;28.40;55.20;;;;;;5054516;28;19916;-77
2022/05/11 13:28:31;;;;;;;;;;;27.90;57.20;;;;;;5054412;28;19904;-77
2022/05/11 13:30:59;;;;;;;;;;;27.10;58.30;;;;;;5054223;28;19920;-76
2022/05/11 13:33:36;;;;;;;;;;;26.10;59.90;;;;;;5054397;28;19904;-78
2022/05/11 13:36:10;;;;;;;;;;;25.90;61.10;;;;;;5054201;28;20440;-78
2022/05/11 13:38:36;;;;;;;;;;;26.10;60.90;;;;;;5053934;28;19923;-78
2022/05/11 13:41:03;;;;;;;;;;;26.90;60.50;;;;;;5054163;28;19908;-78
2022/05/11 13:43:31;;;;;;;;;;;29.10;55.80;;;;;;5054519;28;19905;-76
2022/05/11 13:46:03;;;;;;;;;;;28.40;56.50;;;;;;5054025;28;19940;-78
2022/05/11 13:48:33;;;;;;;;;;;29.10;56.00;;;;;;5054091;28;19905;-78
2022/05/11 13:51:15;;;;;;;;;;;29.90;55.10;;;;;;5035601;28;19958;-77
2022/05/11 13:53:41;;;;;;;;;;;28.60;56.50;;;;;;5054080;28;19905;-77
2022/05/11 13:56:11;;;;;;;;;;;28.40;56.00;;;;;;5060967;28;20015;-77
2022/05/11 13:58:39;;;;;;;;;;;28.30;56.80;;;;;;5073408;28;19908;-77
2022/05/11 14:01:07;;;;;;;;;;;28.30;58.30;;;;;;5073602;28;19932;-76
2022/05/11 14:03:34;;;;;;;;;;;29.30;55.10;;;;;;5073219;28;19963;-78
2022/05/11 14:06:02;;;;;;;;;;;29.70;53.60;;;;;;5071725;28;20311;-77
2022/05/11 14:08:28;;;;;;;;;;;29.70;54.20;;;;;;5055528;28;19911;-77
2022/05/11 14:10:54;;;;;;;;;;;29.10;55.00;;;;;;5073211;28;20283;-78
2022/05/11 14:13:21;;;;;;;;;;;27.40;57.60;;;;;;5055377;28;19912;-77
2022/05/11 14:15:48;;;;;;;;;;;26.50;59.30;;;;;;5071267;28;19908;-77
2022/05/11 14:18:19;;;;;;;;;;;25.70;61.10;;;;;;5073269;28;19904;-78
2022/05/11 14:20:45;;;;;;;;;;;26.20;61.30;;;;;;5054522;28;19951;-76
2022/05/11 14:23:10;;;;;;;;;;;27.00;59.60;;;;;;5073100;28;19954;-77
2022/05/11 14:25:36;;;;;;;;;;;27.40;59.00;;;;;;5070700;28;19912;-78
2022/05/11 14:28:02;;;;;;;;;;;27.80;59.90;;;;;;5073624;28;20386;-77
2022/05/11 14:30:27;;;;;;;;;;;28.50;57.70;;;;;;5073165;28;19953;-76
2022/05/11 14:32:53;;;;;;;;;;;28.20;57.90;;;;;;5073214;28;19911;-77
2022/05/11 14:35:21;;;;;;;;;;;27.20;58.90;;;;;;5071009;28;19911;-76
2022/05/11 14:37:46;;;;;;;;;;;25.30;62.70;;;;;;5054633;28;19951;-77
2022/05/11 14:40:13;;;;;;;;;;;24.60;66.00;;;;;;5073181;28;19940;-77
2022/05/11 14:42:40;;;;;;;;;;;24.20;67.50;;;;;;5073111;28;19908;-77
2022/05/11 14:45:07;;;;;;;;;;;23.40;71.20;;;;;;5072642;28;20280;-77
2022/05/11 14:47:33;;;;;;;;;;;22.60;76.70;;;;;;5070994;28;19954;-78
2022/05/11 14:49:59;;;;;;;;;;;22.50;79.90;;;;;;5055041;28;20338;-76
2022/05/11 14:52:25;;;;;;;;;;;22.10;82.20;;;;;;5073037;28;19912;-76
2022/05/11 14:54:51;;;;;;;;;;;22.10;83.70;;;;;;5073082;28;19908;-78
2022/05/11 15:02:45;;;;;;;;;;;22.40;84.10;;;;;;5076413;28;20279;-77
2022/05/11 15:05:14;;;;;;;;;;;23.00;81.10;;;;;;5075902;28;19999;-76
2022/05/11 15:07:40;;;;;;;;;;;24.00;76.80;;;;;;5057927;28;19908;-76